Time;durP1;ratioP1;P1;durP2;ratioP2;P2;SDS_P1;SDS_P2;PMS_P1;PMS_P2;Temp;Humidity;BMP_temperature;BMP_pressure;BME280_temperature;BME280_humidity;BME280_pressure;Samples;Min_cycle;Max_cycle;Signal;HPM_P1;HPM_P2
2023/01/21 00:00:56;;;;;;;31.27;16.27;;;0.70;99.90;;;;;;5029644;28;20292;-62
2023/01/21 00:03:23;;;;;;;34.97;17.10;;;0.60;99.90;;;;;;5026540;28;20208;-63
2023/01/21 00:05:50;;;;;;;30.70;16.53;;;0.70;99.90;;;;;;5026871;28;20203;-62
2023/01/21 00:08:17;;;;;;;32.37;15.97;;;0.70;99.90;;;;;;5026168;28;20661;-64
2023/01/21 00:10:44;;;;;;;32.77;18.00;;;0.70;99.90;;;;;;5031340;28;20299;-62
2023/01/21 00:13:11;;;;;;;38.27;17.73;;;0.70;99.90;;;;;;5030508;28;20289;-62
2023/01/21 00:15:38;;;;;;;34.70;16.77;;;0.60;99.90;;;;;;5031007;28;20292;-63
2023/01/21 00:18:05;;;;;;;36.90;17.87;;;0.60;99.90;;;;;;5030656;28;20214;-66
2023/01/21 00:20:32;;;;;;;35.73;17.83;;;0.70;99.90;;;;;;5030638;28;20222;-62
2023/01/21 00:22:59;;;;;;;34.37;18.60;;;0.70;99.90;;;;;;5029408;28;20710;-63
2023/01/21 00:25:26;;;;;;;32.50;17.37;;;0.70;99.90;;;;;;5035371;28;20288;-62
2023/01/21 00:27:53;;;;;;;34.03;18.60;;;0.60;99.90;;;;;;5038034;28;20261;-63
2023/01/21 00:30:20;;;;;;;37.47;20.03;;;0.60;99.90;;;;;;5035558;28;20201;-64
2023/01/21 00:32:46;;;;;;;34.67;18.40;;;0.60;99.90;;;;;;5039478;28;20228;-63
2023/01/21 00:35:13;;;;;;;38.97;19.00;;;0.60;99.90;;;;;;5036718;28;20222;-62
2023/01/21 00:37:40;;;;;;;29.60;17.60;;;0.60;99.90;;;;;;5034076;28;20665;-62
2023/01/21 00:40:09;;;;;;;37.83;19.60;;;0.60;99.90;;;;;;5028436;28;20202;-62
2023/01/21 00:42:35;;;;;;;32.77;17.57;;;0.60;99.90;;;;;;5032438;28;20210;-62
2023/01/21 00:45:02;;;;;;;41.33;20.40;;;0.70;99.90;;;;;;5028916;28;20333;-62
2023/01/21 00:47:29;;;;;;;29.77;17.13;;;0.70;99.90;;;;;;5030623;28;20255;-62
2023/01/21 00:49:56;;;;;;;36.07;19.27;;;0.70;99.90;;;;;;5027153;28;20722;-62
2023/01/21 00:52:23;;;;;;;33.30;18.57;;;0.80;99.90;;;;;;5028603;28;20209;-62
2023/01/21 00:54:49;;;;;;;37.73;17.87;;;0.70;99.90;;;;;;5028051;28;20202;-62
2023/01/21 00:57:16;;;;;;;36.67;18.73;;;0.70;99.90;;;;;;5027838;28;20211;-61
2023/01/21 00:59:43;;;;;;;35.37;19.03;;;0.70;99.90;;;;;;5032699;28;20249;-61
2023/01/21 01:02:10;;;;;;;39.03;19.70;;;0.70;99.90;;;;;;5046274;28;20611;-62
2023/01/21 01:04:37;;;;;;;36.37;19.33;;;0.70;99.90;;;;;;5025031;28;20205;-61
2023/01/21 01:07:03;;;;;;;37.20;19.60;;;0.60;99.90;;;;;;5026583;28;20203;-62
2023/01/21 01:09:30;;;;;;;39.97;20.07;;;0.60;99.90;;;;;;5029735;28;20226;-62
2023/01/21 01:11:57;;;;;;;36.37;19.63;;;0.60;99.90;;;;;;5028168;28;20226;-61
2023/01/21 01:14:24;;;;;;;40.17;20.60;;;0.60;99.90;;;;;;5031244;28;20651;-61
2023/01/21 01:16:51;;;;;;;37.60;18.73;;;0.60;99.90;;;;;;5031244;28;20201;-61
2023/01/21 01:19:17;;;;;;;39.67;19.93;;;0.50;99.90;;;;;;5021621;28;20273;-62
2023/01/21 01:21:45;;;;;;;39.80;19.80;;;0.60;99.90;;;;;;5024433;28;20241;-62
2023/01/21 01:24:11;;;;;;;35.47;20.23;;;0.50;99.90;;;;;;5031487;28;20687;-63
2023/01/21 01:26:39;;;;;;;33.47;18.33;;;0.50;99.90;;;;;;5025765;28;20215;-63
2023/01/21 01:29:10;;;;;;;39.03;20.30;;;0.50;99.90;;;;;;5030534;28;20204;-62
2023/01/21 01:31:37;;;;;;;36.70;18.73;;;0.50;99.90;;;;;;5036549;28;20305;-62
2023/01/21 01:34:04;;;;;;;33.73;18.23;;;0.60;99.90;;;;;;5037323;28;20214;-62
2023/01/21 01:36:31;;;;;;;33.27;16.63;;;0.50;99.90;;;;;;5032004;28;20220;-63
2023/01/21 01:38:58;;;;;;;34.47;18.00;;;0.50;99.90;;;;;;5025331;28;20323;-63
2023/01/21 01:41:28;;;;;;;32.53;16.60;;;0.50;99.90;;;;;;5029343;28;20305;-62
2023/01/21 01:44:25;;;;;;;29.87;16.87;;;0.50;99.90;;;;;;5026595;28;20710;-63
2023/01/21 01:46:57;;;;;;;37.33;15.70;;;0.40;99.90;;;;;;5027585;28;20206;-61
2023/01/21 01:49:24;;;;;;;34.70;16.17;;;0.50;99.90;;;;;;5021259;28;20595;-62
2023/01/21 01:51:55;;;;;;;34.80;16.93;;;0.50;99.90;;;;;;5026003;28;20322;-63
2023/01/21 01:54:27;;;;;;;32.43;14.97;;;0.50;99.90;;;;;;5028825;28;20330;-61
2023/01/21 01:56:57;;;;;;;33.40;17.20;;;0.50;99.90;;;;;;5029238;28;20552;-64
2023/01/21 01:59:25;;;;;;;31.77;16.77;;;0.50;99.90;;;;;;5027442;28;21169;-64
2023/01/21 02:01:52;;;;;;;35.70;15.67;;;0.40;99.90;;;;;;5031609;28;20211;-62
2023/01/21 02:04:23;;;;;;;32.07;16.10;;;0.40;99.90;;;;;;5027187;28;20545;-62
2023/01/21 02:06:53;;;;;;;30.83;14.77;;;0.40;99.90;;;;;;5027414;28;20222;-62
2023/01/21 02:09:20;;;;;;;30.13;15.47;;;0.30;99.90;;;;;;5029672;28;20586;-62
2023/01/21 02:11:48;;;;;;;33.73;16.70;;;0.40;99.90;;;;;;5030386;28;20230;-63
2023/01/21 02:14:15;;;;;;;27.07;14.27;;;0.40;99.90;;;;;;5029658;28;20219;-61
2023/01/21 02:17:13;;;;;;;36.07;17.40;;;0.40;99.90;;;;;;5032773;28;20213;-61
2023/01/21 02:20:07;;;;;;;33.03;15.07;;;0.40;99.90;;;;;;5029760;28;20997;-61
2023/01/21 02:22:46;;;;;;;30.13;14.43;;;0.40;99.90;;;;;;5033833;28;20728;-61
2023/01/21 02:25:26;;;;;;;28.30;15.77;;;0.50;99.90;;;;;;5027676;28;20219;-61
2023/01/21 02:27:59;;;;;;;28.43;14.87;;;0.40;99.90;;;;;;5027038;28;20219;-62
2023/01/21 02:31:06;;;;;;;29.47;15.57;;;0.40;99.90;;;;;;5018229;28;20481;-63
2023/01/21 02:33:54;;;;;;;30.10;14.93;;;0.30;99.90;;;;;;5024550;28;20562;-61
2023/01/21 02:36:42;;;;;;;29.17;14.63;;;0.30;99.90;;;;;;5030204;28;22322;-62
2023/01/21 02:39:30;;;;;;;29.53;15.73;;;0.30;99.90;;;;;;5033611;28;20203;-63
2023/01/21 02:42:06;;;;;;;34.43;16.87;;;0.30;99.90;;;;;;5037902;28;20309;-61
2023/01/21 02:44:37;;;;;;;29.80;14.90;;;0.30;99.90;;;;;;5038706;28;20211;-62
2023/01/21 02:47:18;;;;;;;33.30;15.07;;;0.30;99.90;;;;;;5040932;28;20225;-61
2023/01/21 02:49:51;;;;;;;33.43;15.67;;;0.30;99.90;;;;;;5037933;28;20302;-63
2023/01/21 02:52:23;;;;;;;28.23;14.30;;;0.30;99.90;;;;;;5034335;28;20227;-66
2023/01/21 02:54:52;;;;;;;29.33;14.80;;;0.20;99.90;;;;;;5037871;28;20579;-61
2023/01/21 02:57:46;;;;;;;31.67;16.67;;;0.30;99.90;;;;;;5039902;28;20237;-63
2023/01/21 03:00:25;;;;;;;33.07;16.10;;;0.20;99.90;;;;;;5032423;28;20216;-62
2023/01/21 03:03:10;;;;;;;30.03;15.33;;;0.20;99.90;;;;;;5036585;28;20662;-61
2023/01/21 03:06:02;;;;;;;28.93;15.70;;;0.20;99.90;;;;;;5035925;28;20209;-62
2023/01/21 03:09:10;;;;;;;27.77;14.67;;;0.30;99.90;;;;;;5039563;28;20292;-61
2023/01/21 03:11:37;;;;;;;30.60;15.57;;;0.20;99.90;;;;;;5039491;28;20586;-61
2023/01/21 03:17:20;;;;;;;31.70;14.63;;;0.20;99.90;;;;;;5040903;28;20290;-62
2023/01/21 03:20:23;;;;;;;32.47;15.03;;;0.20;99.90;;;;;;5038734;28;20211;-62
2023/01/21 03:22:58;;;;;;;30.37;15.00;;;0.20;99.90;;;;;;5016331;28;20207;-63
2023/01/21 03:25:27;;;;;;;30.00;15.50;;;0.20;99.90;;;;;;5038434;28;20195;-61
2023/01/21 03:27:55;;;;;;;29.10;14.87;;;0.30;99.90;;;;;;5035268;28;20342;-61
2023/01/21 03:30:24;;;;;;;27.57;14.97;;;0.20;99.90;;;;;;5034718;28;20298;-61
2023/01/21 03:32:53;;;;;;;34.03;15.77;;;0.30;99.90;;;;;;5034782;28;20230;-61
2023/01/21 03:35:25;;;;;;;32.27;15.73;;;0.20;99.90;;;;;;5031447;28;20642;-61
2023/01/21 03:38:19;;;;;;;36.80;15.73;;;0.20;99.90;;;;;;5026530;28;20600;-62
2023/01/21 03:41:16;;;;;;;31.80;14.93;;;0.20;99.90;;;;;;5027478;28;20327;-63
2023/01/21 03:43:44;;;;;;;26.90;15.27;;;0.10;99.90;;;;;;5030841;28;20504;-66
2023/01/21 03:46:25;;;;;;;26.10;14.30;;;0.10;99.90;;;;;;5031883;28;20240;-60
2023/01/21 03:49:03;;;;;;;28.93;15.40;;;0.00;99.90;;;;;;5029597;28;20307;-60
2023/01/21 03:51:37;;;;;;;31.33;15.67;;;0.00;99.90;;;;;;5028619;28;20203;-62
2023/01/21 03:54:04;;;;;;;31.00;15.13;;;0.10;99.90;;;;;;5030955;28;20209;-63
2023/01/21 03:56:31;;;;;;;27.50;14.93;;;0.00;99.90;;;;;;5029949;28;20222;-62
2023/01/21 03:58:58;;;;;;;29.57;15.83;;;0.00;99.90;;;;;;5021848;28;20220;-61
2023/01/21 04:01:25;;;;;;;28.30;15.60;;;0.00;99.90;;;;;;5024474;28;20299;-61
2023/01/21 04:03:52;;;;;;;30.10;15.13;;;0.00;99.90;;;;;;5013651;28;20651;-61
2023/01/21 04:06:21;;;;;;;31.63;16.13;;;0.00;99.90;;;;;;5028244;28;20226;-62
2023/01/21 04:08:48;;;;;;;33.50;16.07;;;0.00;99.90;;;;;;5025436;28;20669;-62
2023/01/21 04:11:15;;;;;;;29.13;14.73;;;0.10;99.90;;;;;;5025165;28;20681;-61
2023/01/21 04:13:42;;;;;;;29.17;14.80;;;0.10;99.90;;;;;;5024306;28;20230;-62
2023/01/21 04:16:09;;;;;;;31.87;14.97;;;0.10;99.90;;;;;;5026029;28;20239;-61
2023/01/21 04:18:36;;;;;;;32.97;15.57;;;0.00;99.90;;;;;;5023490;28;20255;-63
2023/01/21 04:21:03;;;;;;;28.40;14.60;;;0.10;99.90;;;;;;5016779;28;20570;-61
2023/01/21 04:23:30;;;;;;;31.43;15.10;;;0.00;99.90;;;;;;5021197;28;20275;-65
2023/01/21 04:25:56;;;;;;;30.83;15.40;;;0.10;99.90;;;;;;5020331;28;20289;-64
2023/01/21 04:28:23;;;;;;;32.00;14.70;;;0.10;99.90;;;;;;5018155;28;20292;-62
2023/01/21 04:30:50;;;;;;;29.90;15.67;;;0.00;99.90;;;;;;5023792;28;20216;-60
2023/01/21 04:33:17;;;;;;;29.57;14.93;;;0.00;99.90;;;;;;5026352;28;20661;-61
2023/01/21 04:35:44;;;;;;;26.90;12.93;;;0.10;99.90;;;;;;5027138;28;20223;-61
2023/01/21 04:38:11;;;;;;;33.57;15.47;;;0.10;99.90;;;;;;5029153;28;20207;-61
2023/01/21 04:40:37;;;;;;;31.07;14.23;;;0.10;99.90;;;;;;5024030;28;21573;-62
2023/01/21 04:43:04;;;;;;;27.47;15.20;;;0.10;99.90;;;;;;5023797;28;20208;-61
2023/01/21 04:45:31;;;;;;;30.13;15.00;;;0.10;99.90;;;;;;5024517;28;20204;-62
2023/01/21 04:47:58;;;;;;;30.37;15.27;;;0.10;99.90;;;;;;5023796;28;20208;-63
2023/01/21 04:50:25;;;;;;;30.13;14.67;;;0.10;99.90;;;;;;5019954;28;20594;-62
2023/01/21 04:52:51;;;;;;;29.07;14.80;;;0.20;99.90;;;;;;5022467;28;20652;-61
2023/01/21 04:55:18;;;;;;;29.33;15.13;;;0.10;99.90;;;;;;5022346;28;20197;-61
2023/01/21 04:57:45;;;;;;;29.73;15.43;;;0.10;99.90;;;;;;5025057;28;20287;-61
2023/01/21 05:00:12;;;;;;;27.43;13.57;;;0.10;99.90;;;;;;5023525;28;20674;-61
2023/01/21 05:02:39;;;;;;;28.10;14.10;;;0.00;99.90;;;;;;5027119;28;20678;-61
2023/01/21 05:05:06;;;;;;;29.47;15.03;;;0.10;99.90;;;;;;5021661;28;20212;-61
2023/01/21 05:07:33;;;;;;;31.70;14.97;;;0.00;99.90;;;;;;5023457;28;20226;-61
2023/01/21 05:10:00;;;;;;;30.97;15.53;;;0.00;99.90;;;;;;5023421;28;20721;-63
2023/01/21 05:12:27;;;;;;;28.67;13.67;;;0.10;99.90;;;;;;5022379;28;20224;-63
2023/01/21 05:14:56;;;;;;;29.77;14.77;;;0.00;99.90;;;;;;5027445;28;20219;-60
2023/01/21 05:17:23;;;;;;;27.93;14.17;;;0.00;99.90;;;;;;5029650;28;20651;-60
2023/01/21 05:19:50;;;;;;;29.53;14.73;;;0.00;99.90;;;;;;5025013;28;20208;-59
2023/01/21 05:22:17;;;;;;;30.70;15.27;;;-0.10;99.90;;;;;;5027601;28;20686;-61
2023/01/21 05:24:44;;;;;;;32.53;15.80;;;-0.10;99.90;;;;;;5021781;28;20316;-60
2023/01/21 05:27:10;;;;;;;29.20;15.17;;;0.10;99.90;;;;;;5025765;28;20211;-60
2023/01/21 05:29:38;;;;;;;30.73;15.10;;;0.00;99.90;;;;;;5024609;28;20562;-60
2023/01/21 05:32:05;;;;;;;26.97;13.80;;;0.00;99.90;;;;;;5024158;28;20223;-61
2023/01/21 05:34:32;;;;;;;29.83;14.30;;;-0.10;99.90;;;;;;5020805;28;20210;-60
2023/01/21 05:36:58;;;;;;;30.63;13.93;;;-0.10;99.90;;;;;;5027043;28;20224;-63
2023/01/21 05:39:25;;;;;;;29.23;15.00;;;-0.10;99.90;;;;;;5019911;28;20219;-65
2023/01/21 05:41:52;;;;;;;26.67;14.00;;;-0.10;99.90;;;;;;5020490;28;20299;-61
2023/01/21 05:44:19;;;;;;;26.93;14.90;;;-0.10;99.90;;;;;;5030807;28;20196;-62
2023/01/21 05:46:45;;;;;;;31.37;14.73;;;0.00;99.90;;;;;;5029251;28;20613;-62
2023/01/21 05:49:12;;;;;;;33.17;14.77;;;0.00;99.90;;;;;;5024650;28;20254;-61
2023/01/21 05:51:39;;;;;;;31.33;15.20;;;0.00;99.90;;;;;;5030550;28;20632;-62
2023/01/21 05:54:06;;;;;;;32.40;14.67;;;-0.10;99.90;;;;;;5017053;28;20222;-62
2023/01/21 05:56:32;;;;;;;32.17;14.40;;;-0.10;99.90;;;;;;5030692;28;20197;-62
2023/01/21 05:58:59;;;;;;;33.13;15.10;;;0.00;99.90;;;;;;5027089;28;20725;-62
2023/01/21 06:01:26;;;;;;;29.13;15.77;;;0.00;99.90;;;;;;5029903;28;20706;-63
2023/01/21 06:03:53;;;;;;;33.43;16.17;;;-0.20;99.90;;;;;;5026699;28;20295;-62
2023/01/21 06:06:20;;;;;;;25.60;14.97;;;-0.10;99.90;;;;;;5031529;28;20345;-61
2023/01/21 06:08:47;;;;;;;28.20;14.30;;;-0.10;99.90;;;;;;5030187;28;20674;-62
2023/01/21 06:11:13;;;;;;;31.23;15.33;;;-0.10;99.90;;;;;;5031677;28;20242;-62
2023/01/21 06:13:40;;;;;;;30.57;14.53;;;-0.10;99.90;;;;;;5028990;28;20232;-62
2023/01/21 06:16:07;;;;;;;31.13;15.93;;;-0.10;99.90;;;;;;5028647;28;20205;-62
2023/01/21 06:18:34;;;;;;;28.97;14.97;;;-0.20;99.90;;;;;;5029127;28;20195;-63
2023/01/21 06:21:01;;;;;;;37.00;15.20;;;-0.20;99.90;;;;;;5030356;28;20706;-62
2023/01/21 06:23:28;;;;;;;28.60;13.97;;;-0.20;99.90;;;;;;5028619;28;20219;-62
2023/01/21 06:25:59;;;;;;;32.53;16.07;;;-0.20;99.90;;;;;;5044290;28;20300;-62
2023/01/21 06:28:26;;;;;;;31.00;15.90;;;-0.20;99.90;;;;;;5028674;28;20204;-62
2023/01/21 06:30:53;;;;;;;33.33;14.70;;;-0.10;99.90;;;;;;5027761;28;20343;-63
2023/01/21 06:33:20;;;;;;;32.57;16.83;;;-0.10;99.90;;;;;;5033155;28;20361;-62
2023/01/21 06:35:47;;;;;;;31.57;15.53;;;-0.10;99.90;;;;;;5034586;28;20333;-62
2023/01/21 06:38:13;;;;;;;26.73;14.70;;;-0.10;99.90;;;;;;5032901;28;20230;-61
2023/01/21 06:40:41;;;;;;;30.97;15.30;;;-0.20;99.90;;;;;;5026116;28;20211;-62
2023/01/21 06:43:08;;;;;;;30.03;14.33;;;-0.20;99.90;;;;;;5028989;28;20227;-64
2023/01/21 06:45:35;;;;;;;26.93;14.70;;;-0.20;99.90;;;;;;5031483;28;20284;-62
2023/01/21 06:48:02;;;;;;;29.30;14.40;;;-0.20;99.90;;;;;;5032492;28;20257;-61
2023/01/21 06:50:29;;;;;;;34.10;15.27;;;-0.10;99.90;;;;;;5030573;28;20267;-61
2023/01/21 06:52:55;;;;;;;28.13;14.77;;;-0.30;99.90;;;;;;5034111;28;20269;-62
2023/01/21 06:55:22;;;;;;;32.03;15.70;;;-0.30;99.90;;;;;;5030748;28;20669;-62
2023/01/21 06:57:49;;;;;;;32.93;15.80;;;-0.30;99.90;;;;;;5030813;28;20660;-63
2023/01/21 07:00:17;;;;;;;34.53;16.77;;;-0.20;99.90;;;;;;5025206;28;20199;-61
2023/01/21 07:02:44;;;;;;;31.90;16.50;;;-0.20;99.90;;;;;;5034130;28;20299;-63
2023/01/21 07:05:13;;;;;;;32.20;15.53;;;-0.20;99.90;;;;;;5028734;28;20265;-62
2023/01/21 07:07:40;;;;;;;33.20;15.87;;;-0.30;99.90;;;;;;5031252;28;20278;-64
2023/01/21 07:10:08;;;;;;;33.33;16.87;;;-0.30;99.90;;;;;;5033966;28;20218;-62
2023/01/21 07:12:35;;;;;;;32.93;15.03;;;-0.40;99.90;;;;;;5030839;28;20302;-63
2023/01/21 07:15:02;;;;;;;32.80;16.60;;;-0.40;99.90;;;;;;5028374;28;20205;-62
2023/01/21 07:17:28;;;;;;;34.80;17.17;;;-0.30;99.90;;;;;;5030156;28;20284;-62
2023/01/21 07:19:55;;;;;;;29.40;14.73;;;-0.30;99.90;;;;;;5028243;28;20299;-63
2023/01/21 07:22:22;;;;;;;32.63;15.93;;;-0.20;99.90;;;;;;5031923;28;20563;-62
2023/01/21 07:24:49;;;;;;;30.60;15.67;;;-0.30;99.90;;;;;;5032014;28;20310;-62
2023/01/21 07:27:15;;;;;;;35.03;15.53;;;-0.30;99.90;;;;;;5029442;28;20608;-61
2023/01/21 07:29:42;;;;;;;32.50;15.87;;;-0.40;99.90;;;;;;5027527;28;20207;-61
2023/01/21 07:32:09;;;;;;;31.53;16.30;;;-0.30;99.90;;;;;;5032328;28;20205;-61
2023/01/21 07:34:36;;;;;;;32.60;15.63;;;-0.40;99.90;;;;;;5031975;28;20572;-61
2023/01/21 07:37:02;;;;;;;34.50;16.10;;;-0.40;99.90;;;;;;5031216;28;20220;-60
2023/01/21 07:39:29;;;;;;;30.43;15.27;;;-0.40;99.90;;;;;;5030505;28;20202;-60
2023/01/21 07:41:56;;;;;;;37.47;16.83;;;-0.50;99.90;;;;;;5034636;28;20220;-60
2023/01/21 07:44:23;;;;;;;42.73;18.40;;;-0.50;99.90;;;;;;5033044;28;20714;-61
2023/01/21 07:46:50;;;;;;;33.20;16.67;;;-0.40;99.90;;;;;;5031063;28;20238;-60
2023/01/21 07:49:17;;;;;;;42.83;17.47;;;-0.40;99.90;;;;;;5029966;28;20232;-60
2023/01/21 07:51:45;;;;;;;37.10;17.60;;;-0.40;99.90;;;;;;5025550;28;20205;-60
2023/01/21 07:54:12;;;;;;;38.53;17.80;;;-0.50;99.90;;;;;;5034825;28;20761;-62
2023/01/21 07:56:39;;;;;;;42.37;18.50;;;-0.50;99.90;;;;;;5028189;28;20214;-62
2023/01/21 07:59:06;;;;;;;40.20;18.67;;;-0.50;99.90;;;;;;5031381;28;20203;-62
2023/01/21 08:01:33;;;;;;;35.53;17.87;;;-0.50;99.90;;;;;;5030017;28;20200;-64
2023/01/21 08:04:00;;;;;;;39.33;18.10;;;-0.60;99.90;;;;;;5024358;28;20208;-62
2023/01/21 08:06:26;;;;;;;38.63;18.57;;;-0.50;99.90;;;;;;5020644;28;20339;-62
2023/01/21 08:08:53;;;;;;;43.20;19.33;;;-0.50;99.90;;;;;;5026304;28;20250;-62
2023/01/21 08:11:20;;;;;;;41.30;18.40;;;-0.40;99.90;;;;;;5025887;28;20236;-62
2023/01/21 08:13:48;;;;;;;43.60;18.57;;;-0.40;99.90;;;;;;5017502;28;20223;-62
2023/01/21 08:16:15;;;;;;;44.50;18.97;;;-0.50;99.90;;;;;;5029220;28;20551;-63
2023/01/21 08:18:42;;;;;;;44.47;18.97;;;-0.50;99.90;;;;;;5026336;28;20266;-61
2023/01/21 08:21:09;;;;;;;35.23;18.90;;;-0.40;99.90;;;;;;5024137;28;20200;-61
2023/01/21 08:23:35;;;;;;;48.77;19.50;;;-0.40;99.90;;;;;;5023145;28;20294;-62
2023/01/21 08:26:04;;;;;;;44.47;19.13;;;-0.40;99.90;;;;;;5036289;28;20209;-61
2023/01/21 08:28:31;;;;;;;49.20;20.80;;;-0.30;99.90;;;;;;5045937;28;20219;-63
2023/01/21 08:31:06;;;;;;;44.77;20.07;;;-0.30;99.90;;;;;;5017829;28;20672;-62
2023/01/21 08:33:34;;;;;;;50.20;19.93;;;-0.20;99.90;;;;;;5030115;28;20708;-62
2023/01/21 08:36:02;;;;;;;54.00;20.97;;;-0.20;99.90;;;;;;5027590;28;21007;-61
2023/01/21 08:38:29;;;;;;;56.80;20.43;;;-0.30;99.90;;;;;;5030463;28;20618;-61
2023/01/21 08:40:57;;;;;;;41.07;18.50;;;-0.30;99.90;;;;;;5030382;28;20350;-61
2023/01/21 08:43:24;;;;;;;49.20;19.77;;;-0.30;99.90;;;;;;5030143;28;20232;-63
2023/01/21 08:45:54;;;;;;;42.40;18.97;;;-0.40;99.90;;;;;;5024168;28;20209;-61
2023/01/21 08:48:21;;;;;;;48.07;18.73;;;-0.30;99.90;;;;;;4662011;28;10000289;-61
2023/01/21 08:50:47;;;;;;;48.73;21.63;;;-0.30;99.90;;;;;;5019428;28;20244;-61
2023/01/21 08:53:14;;;;;;;51.20;20.87;;;-0.30;99.90;;;;;;5028530;28;20695;-61
2023/01/21 08:55:41;;;;;;;43.97;18.50;;;-0.20;99.90;;;;;;5028611;28;20203;-62
2023/01/21 08:58:08;;;;;;;54.13;19.87;;;-0.20;99.90;;;;;;5029129;28;20300;-63
2023/01/21 09:00:34;;;;;;;48.80;20.70;;;-0.20;99.90;;;;;;5027717;28;20303;-61
2023/01/21 09:03:01;;;;;;;47.63;19.57;;;-0.10;99.90;;;;;;5018959;28;20640;-62
2023/01/21 09:05:28;;;;;;;41.43;18.53;;;-0.10;99.90;;;;;;5005651;28;21020;-61
2023/01/21 09:07:55;;;;;;;48.37;19.10;;;-0.20;99.90;;;;;;5017929;28;21391;-63
2023/01/21 09:13:10;;;;;;;47.53;20.13;;;-0.20;99.90;;;;;;5019951;28;20305;-61
2023/01/21 09:15:38;;;;;;;45.70;18.93;;;-0.10;99.90;;;;;;5016726;28;20207;-63
2023/01/21 09:18:05;;;;;;;41.10;17.53;;;-0.30;99.90;;;;;;5009539;28;20951;-63
2023/01/21 09:20:32;;;;;;;44.87;18.60;;;-0.20;99.90;;;;;;4998631;28;20201;-61
2023/01/21 09:22:59;;;;;;;49.37;19.00;;;-0.30;99.90;;;;;;5017388;28;20207;-61
2023/01/21 09:25:25;;;;;;;42.70;18.73;;;-0.20;99.90;;;;;;5012371;28;20594;-61
2023/01/21 09:27:52;;;;;;;51.60;19.63;;;-0.20;99.90;;;;;;5009746;28;20200;-64
2023/01/21 09:30:19;;;;;;;45.93;20.13;;;-0.30;99.90;;;;;;5011799;28;20207;-63
2023/01/21 09:32:46;;;;;;;48.43;19.57;;;-0.30;99.90;;;;;;5010232;28;20232;-61
2023/01/21 09:35:13;;;;;;;58.23;20.90;;;-0.20;99.90;;;;;;5008002;28;20212;-61
2023/01/21 09:37:40;;;;;;;51.63;21.03;;;-0.20;99.90;;;;;;5008655;28;20235;-61
2023/01/21 09:40:13;;;;;;;48.80;19.47;;;-0.10;99.90;;;;;;5007438;28;20752;-61
2023/01/21 09:42:41;;;;;;;49.77;20.20;;;-0.10;99.90;;;;;;5006416;28;20650;-61
2023/01/21 09:45:14;;;;;;;50.40;17.83;;;0.00;99.90;;;;;;4999689;28;20218;-61
2023/01/21 09:47:45;;;;;;;41.17;16.93;;;0.00;99.90;;;;;;5008641;28;20657;-63
2023/01/21 09:50:13;;;;;;;40.87;17.83;;;0.00;99.90;;;;;;5012941;28;20247;-61
2023/01/21 09:53:05;;;;;;;49.07;20.23;;;0.10;99.90;;;;;;5015699;28;20612;-61
2023/01/21 09:55:45;;;;;;;51.50;19.80;;;0.20;99.90;;;;;;5020130;28;20205;-61
2023/01/21 09:58:15;;;;;;;47.17;19.60;;;0.30;99.90;;;;;;5015227;28;20201;-61
2023/01/21 10:00:57;;;;;;;42.20;18.83;;;0.30;99.90;;;;;;5011227;28;22218;-62
2023/01/21 10:04:34;;;;;;;43.63;16.30;;;0.20;99.90;;;;;;5016839;28;20207;-63
2023/01/21 10:07:28;;;;;;;45.13;17.27;;;0.20;99.90;;;;;;4859619;29;20210;-62
2023/01/21 10:10:27;;;;;;;43.73;17.47;;;0.50;99.90;;;;;;4841296;29;20438;-60
2023/01/21 10:13:02;;;;;;;45.30;17.30;;;0.50;99.90;;;;;;4859359;29;20210;-60
2023/01/21 10:15:41;;;;;;;44.40;18.37;;;0.50;99.90;;;;;;4863461;29;20217;-62
2023/01/21 10:18:16;;;;;;;52.33;19.83;;;0.50;99.90;;;;;;4860598;29;20217;-63
2023/01/21 10:20:57;;;;;;;60.70;21.10;;;0.50;99.90;;;;;;4858978;29;20258;-60
2023/01/21 10:23:39;;;;;;;48.30;18.73;;;0.40;99.90;;;;;;4862428;29;20270;-60
2023/01/21 10:26:12;;;;;;;47.30;17.70;;;0.50;99.90;;;;;;4870673;29;20217;-61
2023/01/21 10:28:43;;;;;;;51.23;19.40;;;0.60;99.90;;;;;;4865140;29;20706;-59
2023/01/21 10:31:28;;;;;;;45.27;18.30;;;0.60;99.90;;;;;;4862722;29;20221;-61
2023/01/21 10:33:55;;;;;;;50.47;19.50;;;0.70;99.90;;;;;;4862930;29;20241;-60
2023/01/21 10:36:34;;;;;;;50.50;19.50;;;0.70;99.90;;;;;;4838501;29;20230;-60
2023/01/21 10:39:13;;;;;;;49.57;18.33;;;0.70;99.90;;;;;;4857920;29;20595;-60
2023/01/21 10:42:07;;;;;;;43.20;18.80;;;0.70;99.90;;;;;;4989706;28;20227;-60
2023/01/21 10:44:42;;;;;;;48.27;19.10;;;0.80;99.90;;;;;;5019697;28;20212;-60
2023/01/21 10:47:37;;;;;;;46.13;19.27;;;1.00;99.90;;;;;;5014207;28;20204;-59
2023/01/21 10:50:26;;;;;;;47.93;20.70;;;1.10;99.90;;;;;;5013259;28;20245;-61
2023/01/21 10:52:55;;;;;;;42.43;18.33;;;1.30;99.90;;;;;;5012512;28;20576;-60
2023/01/21 10:55:34;;;;;;;42.13;17.83;;;1.40;99.90;;;;;;5017510;28;20212;-59
2023/01/21 10:58:24;;;;;;;46.40;18.20;;;1.30;99.90;;;;;;5019806;28;20476;-62
2023/01/21 11:00:52;;;;;;;45.30;18.03;;;1.60;99.90;;;;;;5021437;28;20200;-61
2023/01/21 11:03:22;;;;;;;49.30;17.93;;;1.60;99.90;;;;;;5023458;28;20201;-60
2023/01/21 11:05:49;;;;;;;42.50;17.47;;;1.70;99.90;;;;;;5019178;28;20665;-62
2023/01/21 11:08:22;;;;;;;44.10;18.57;;;1.70;99.90;;;;;;5018803;28;20618;-60
2023/01/21 11:10:54;;;;;;;47.50;19.60;;;1.80;99.90;;;;;;5020104;28;20208;-62
2023/01/21 11:13:22;;;;;;;43.73;19.10;;;1.90;99.90;;;;;;5025557;28;20537;-62
2023/01/21 11:15:58;;;;;;;41.77;18.70;;;2.00;99.90;;;;;;5023988;28;20193;-60
2023/01/21 11:18:38;;;;;;;43.30;19.07;;;2.10;99.90;;;;;;5025931;28;20675;-59
2023/01/21 11:21:21;;;;;;;51.90;19.20;;;2.10;99.90;;;;;;5025084;28;20547;-60
2023/01/21 11:23:59;;;;;;;38.83;18.47;;;2.40;99.90;;;;;;5019685;28;20204;-59
2023/01/21 11:26:28;;;;;;;42.47;18.87;;;2.60;99.90;;;;;;5019070;28;20649;-60
2023/01/21 11:29:15;;;;;;;39.07;17.23;;;2.60;99.90;;;;;;5016930;28;20270;-60
2023/01/21 11:32:03;;;;;;;43.33;20.10;;;2.80;99.90;;;;;;5017772;28;20208;-61
2023/01/21 11:34:30;;;;;;;34.90;16.60;;;3.40;99.90;;;;;;5017996;28;20233;-61
2023/01/21 11:37:03;;;;;;;36.83;17.23;;;3.60;99.90;;;;;;5010611;28;20696;-59
2023/01/21 11:39:39;;;;;;;33.43;16.40;;;3.60;99.90;;;;;;5021941;28;20681;-60
2023/01/21 11:42:14;;;;;;;35.10;17.93;;;3.80;99.90;;;;;;5015713;28;20655;-60
2023/01/21 11:44:58;;;;;;;36.13;16.13;;;3.90;99.90;;;;;;5021129;28;20300;-61
2023/01/21 11:47:37;;;;;;;34.33;17.43;;;4.50;99.90;;;;;;5016998;28;20596;-61
2023/01/21 11:50:29;;;;;;;36.30;16.83;;;5.10;99.90;;;;;;5015205;28;20239;-63
2023/01/21 11:53:07;;;;;;;33.47;16.03;;;5.20;99.90;;;;;;5011295;28;20340;-61
2023/01/21 11:55:45;;;;;;;32.97;15.43;;;5.50;99.90;;;;;;5011643;28;20218;-60
2023/01/21 11:58:38;;;;;;;33.73;16.80;;;5.10;99.90;;;;;;5008544;28;20293;-61
2023/01/21 12:01:09;;;;;;;33.57;16.73;;;6.00;99.90;;;;;;5010851;28;20740;-62
2023/01/21 12:03:44;;;;;;;34.73;17.60;;;6.00;99.90;;;;;;5017825;28;20285;-61
2023/01/21 12:06:29;;;;;;;37.50;17.50;;;6.40;99.90;;;;;;5015920;28;20207;-62
2023/01/21 12:09:02;;;;;;;31.13;16.30;;;6.20;99.90;;;;;;5017011;28;20200;-61
2023/01/21 12:11:31;;;;;;;32.43;16.40;;;6.50;99.90;;;;;;5015831;28;20265;-61
2023/01/21 12:14:05;;;;;;;31.73;17.47;;;6.50;99.90;;;;;;5006284;28;20219;-60
2023/01/21 12:16:34;;;;;;;33.77;17.10;;;6.80;99.90;;;;;;5014557;28;20199;-62
2023/01/21 12:19:09;;;;;;;32.93;15.73;;;6.50;99.90;;;;;;5016351;28;20386;-61
2023/01/21 12:22:01;;;;;;;30.33;15.67;;;6.70;99.90;;;;;;5023562;28;20202;-61
2023/01/21 12:24:35;;;;;;;28.40;14.37;;;6.20;99.90;;;;;;5017407;28;20721;-61
2023/01/21 12:27:44;;;;;;;28.20;14.70;;;6.30;99.90;;;;;;5025186;28;20213;-61
2023/01/21 12:30:42;;;;;;;30.43;16.17;;;6.30;99.90;;;;;;5022855;28;20273;-61
2023/01/21 12:33:18;;;;;;;26.93;14.67;;;6.40;99.90;;;;;;4998094;28;20214;-61
2023/01/21 12:35:50;;;;;;;24.83;14.20;;;6.20;99.90;;;;;;5021431;28;20323;-61
2023/01/21 12:38:45;;;;;;;26.23;13.10;;;6.40;99.90;;;;;;5016174;28;20347;-62
2023/01/21 12:41:27;;;;;;;26.07;13.60;;;6.20;99.90;;;;;;5012202;28;20285;-61
2023/01/21 12:44:14;;;;;;;24.03;11.73;;;6.30;99.90;;;;;;5031967;28;20204;-62
2023/01/21 12:46:46;;;;;;;26.67;12.07;;;6.30;99.90;;;;;;5013992;28;20203;-62
2023/01/21 12:49:46;;;;;;;28.67;13.60;;;6.20;99.90;;;;;;5018243;28;20204;-61
2023/01/21 12:52:33;;;;;;;21.93;12.17;;;6.10;99.90;;;;;;5014424;28;20213;-62
2023/01/21 12:55:10;;;;;;;23.23;12.33;;;6.60;99.90;;;;;;5016085;28;20246;-61
2023/01/21 12:57:43;;;;;;;21.70;12.10;;;6.80;99.90;;;;;;5019327;28;20210;-62
2023/01/21 13:00:21;;;;;;;24.27;12.43;;;7.10;99.90;;;;;;5022843;28;20629;-62
2023/01/21 13:03:11;;;;;;;22.83;13.37;;;7.10;99.90;;;;;;5022948;28;20542;-61